createdAt,value
2023-01-18T00:00:02.784Z,3.10
2023-01-18T00:01:02.779Z,2.50
2023-01-18T00:02:02.805Z,2.40
2023-01-18T00:03:02.735Z,2.50
2023-01-18T00:04:02.752Z,2.50
2023-01-18T00:05:02.777Z,2.70
2023-01-18T00:06:02.792Z,2.30
2023-01-18T00:07:02.698Z,2.90
2023-01-18T00:08:02.669Z,2.30
2023-01-18T00:09:02.685Z,2.70
2023-01-18T00:10:02.661Z,2.80
2023-01-18T00:11:02.641Z,3.10
2023-01-18T00:12:02.633Z,2.70
2023-01-18T00:13:02.641Z,2.80
2023-01-18T00:14:02.624Z,2.80
2023-01-18T00:15:02.633Z,3.00
2023-01-18T00:16:02.626Z,3.40
2023-01-18T00:17:02.577Z,3.30
2023-01-18T00:18:02.564Z,3.40
2023-01-18T00:19:02.594Z,3.30
2023-01-18T00:20:02.578Z,3.00
2023-01-18T00:21:02.543Z,3.20
2023-01-18T00:22:02.551Z,3.10
2023-01-18T00:23:02.523Z,3.40
2023-01-18T00:24:02.521Z,3.00
2023-01-18T00:25:02.494Z,3.10
2023-01-18T00:26:02.475Z,3.00
2023-01-18T00:27:02.469Z,3.30
2023-01-18T00:28:02.493Z,3.40
2023-01-18T00:29:02.445Z,3.90
2023-01-18T00:30:02.447Z,3.50
2023-01-18T00:31:02.494Z,3.00
2023-01-18T00:32:02.411Z,3.00
2023-01-18T00:33:02.417Z,3.90
2023-01-18T00:34:02.399Z,4.10
2023-01-18T00:35:02.391Z,4.10
2023-01-18T00:36:02.435Z,4.60
2023-01-18T00:37:02.358Z,5.10
2023-01-18T00:38:02.372Z,4.70
2023-01-18T00:39:02.337Z,5.30
2023-01-18T00:40:02.374Z,4.00
2023-01-18T00:41:02.335Z,4.40
2023-01-18T00:42:02.297Z,4.50
2023-01-18T00:43:02.293Z,4.40
2023-01-18T00:44:02.276Z,4.30
2023-01-18T00:45:02.281Z,4.40
2023-01-18T00:46:02.361Z,4.60
2023-01-18T00:47:02.250Z,4.50
2023-01-18T00:48:02.230Z,3.40
2023-01-18T00:49:02.246Z,3.60
2023-01-18T00:50:02.209Z,3.40
2023-01-18T00:51:02.203Z,3.50
2023-01-18T00:52:02.204Z,4.00
2023-01-18T00:53:02.182Z,3.70
2023-01-18T00:54:02.188Z,3.00
2023-01-18T00:55:02.179Z,2.70
2023-01-18T00:56:02.164Z,3.30
2023-01-18T00:57:02.161Z,3.10
2023-01-18T00:58:02.127Z,2.60
2023-01-18T00:59:02.114Z,2.70
2023-01-18T01:00:02.115Z,3.10
2023-01-18T01:01:02.236Z,3.40
2023-01-18T01:02:02.279Z,4.00
2023-01-18T01:03:02.076Z,3.30
2023-01-18T01:04:02.097Z,3.00
2023-01-18T01:05:02.057Z,3.30
2023-01-18T01:06:02.055Z,3.10
2023-01-18T01:07:02.025Z,3.00
2023-01-18T01:08:02.041Z,3.00
2023-01-18T01:09:02.006Z,3.00
2023-01-18T01:10:02.006Z,2.90
2023-01-18T01:11:02.008Z,3.30
2023-01-18T01:12:02.022Z,2.90
2023-01-18T01:13:01.966Z,3.30
2023-01-18T01:14:01.945Z,3.20
2023-01-18T01:15:01.979Z,3.00
2023-01-18T01:16:01.951Z,3.10
2023-01-18T01:17:01.920Z,3.40
2023-01-18T01:18:01.902Z,3.40
2023-01-18T01:19:01.917Z,3.30
2023-01-18T01:20:01.877Z,3.10
2023-01-18T01:21:01.874Z,3.20
2023-01-18T01:22:01.868Z,3.20
2023-01-18T01:23:01.873Z,3.30
2023-01-18T01:24:01.855Z,3.50
2023-01-18T01:25:01.851Z,3.00
2023-01-18T01:26:01.829Z,3.10
2023-01-18T01:27:01.822Z,3.60
2023-01-18T01:28:01.804Z,3.20
2023-01-18T01:29:01.784Z,4.20
2023-01-18T01:30:01.788Z,3.60
2023-01-18T01:31:01.814Z,3.80
2023-01-18T01:32:01.775Z,3.80
2023-01-18T01:33:01.752Z,3.80
2023-01-18T01:34:01.757Z,3.70
2023-01-18T01:35:01.726Z,3.00
2023-01-18T01:36:01.732Z,4.80
2023-01-18T01:37:01.746Z,3.60
2023-01-18T01:38:01.684Z,3.60
2023-01-18T01:39:01.679Z,3.80
2023-01-18T01:40:01.689Z,4.30
2023-01-18T01:41:01.676Z,4.00
2023-01-18T01:42:01.637Z,3.60
2023-01-18T01:43:01.631Z,3.10
2023-01-18T01:44:01.618Z,3.30
2023-01-18T01:45:01.623Z,3.10
2023-01-18T01:46:01.690Z,3.10
2023-01-18T01:47:01.604Z,2.90
2023-01-18T01:48:01.569Z,3.50
2023-01-18T01:49:01.565Z,3.30
2023-01-18T01:50:01.550Z,2.80
2023-01-18T01:51:01.547Z,2.80
2023-01-18T01:52:01.558Z,3.30
2023-01-18T01:53:01.522Z,3.30
2023-01-18T01:54:02.017Z,3.20
2023-01-18T01:55:01.536Z,2.80
2023-01-18T01:56:01.509Z,2.90
2023-01-18T01:57:01.537Z,2.70
2023-01-18T01:58:04.379Z,2.90
2023-01-18T01:59:01.508Z,3.20
2023-01-18T02:00:01.474Z,2.60
2023-01-18T02:01:01.536Z,3.30
2023-01-18T02:02:01.518Z,3.10
2023-01-18T02:03:01.720Z,3.00
2023-01-18T02:04:01.428Z,3.60
2023-01-18T02:05:01.393Z,2.70
2023-01-18T02:06:01.380Z,2.70
2023-01-18T02:07:01.364Z,2.60
2023-01-18T02:08:01.346Z,2.50
2023-01-18T02:09:01.363Z,2.50
2023-01-18T02:10:01.356Z,2.40
2023-01-18T02:11:01.318Z,2.70
2023-01-18T02:12:01.321Z,2.90
2023-01-18T02:13:01.304Z,2.50
2023-01-18T02:14:01.306Z,2.60
2023-01-18T02:15:01.281Z,2.30
2023-01-18T02:16:01.286Z,2.50
2023-01-18T02:17:01.324Z,2.60
2023-01-18T02:18:01.239Z,3.00
2023-01-18T02:19:01.227Z,2.50
2023-01-18T02:20:01.256Z,2.70
2023-01-18T02:21:01.211Z,2.10
2023-01-18T02:22:01.210Z,2.80
2023-01-18T02:23:01.185Z,2.30
2023-01-18T02:24:01.178Z,2.40
2023-01-18T02:25:01.195Z,2.50
2023-01-18T02:26:01.147Z,2.40
2023-01-18T02:27:01.149Z,2.40
2023-01-18T02:28:01.144Z,2.20
2023-01-18T02:29:01.221Z,2.30
2023-01-18T02:30:01.113Z,2.50
2023-01-18T02:31:01.178Z,2.20
2023-01-18T02:32:01.090Z,2.40
2023-01-18T02:33:01.085Z,2.50
2023-01-18T02:34:01.178Z,2.30
2023-01-18T02:35:01.088Z,2.10
2023-01-18T02:36:01.042Z,2.60
2023-01-18T02:37:01.046Z,2.30
2023-01-18T02:38:01.036Z,2.30
2023-01-18T02:39:01.022Z,2.50
2023-01-18T02:40:01.021Z,2.70
2023-01-18T02:41:01.001Z,2.30
2023-01-18T02:42:00.982Z,2.40
2023-01-18T02:43:01.056Z,2.20
2023-01-18T02:44:00.988Z,2.10
2023-01-18T02:45:00.940Z,2.10
2023-01-18T02:46:00.980Z,2.40
2023-01-18T02:47:00.921Z,2.40
2023-01-18T02:48:00.909Z,2.70
2023-01-18T02:49:00.919Z,2.20
2023-01-18T02:50:00.891Z,2.40
2023-01-18T02:51:00.884Z,2.60
2023-01-18T02:52:00.872Z,2.10
2023-01-18T02:53:00.872Z,2.10
2023-01-18T02:54:00.870Z,2.50
2023-01-18T02:55:00.834Z,2.30
2023-01-18T02:56:00.823Z,2.30
2023-01-18T02:57:00.817Z,2.10
2023-01-18T02:58:00.810Z,2.20
2023-01-18T02:59:00.810Z,2.50
2023-01-18T03:00:00.795Z,2.20
2023-01-18T03:01:00.806Z,2.60
2023-01-18T03:02:00.782Z,2.80
2023-01-18T03:03:01.291Z,2.80
2023-01-18T03:04:00.764Z,2.60
2023-01-18T03:05:00.730Z,2.40
2023-01-18T03:06:00.721Z,2.70
2023-01-18T03:07:00.702Z,2.70
2023-01-18T03:08:00.707Z,2.30
2023-01-18T03:09:00.707Z,2.50
2023-01-18T03:10:00.672Z,2.50
2023-01-18T03:11:00.670Z,2.60
2023-01-18T03:12:00.649Z,2.30
2023-01-18T03:13:00.790Z,2.80
2023-01-18T03:14:00.637Z,2.20
2023-01-18T03:15:00.639Z,2.50
2023-01-18T03:16:00.655Z,2.20
2023-01-18T03:17:00.606Z,2.10
2023-01-18T03:18:00.607Z,2.20
2023-01-18T03:19:00.565Z,2.70
2023-01-18T03:20:00.578Z,2.50
2023-01-18T03:21:00.543Z,2.10
2023-01-18T03:22:00.535Z,2.40
2023-01-18T03:23:00.992Z,2.60
2023-01-18T03:24:00.509Z,2.20
2023-01-18T03:25:00.528Z,2.10
2023-01-18T03:26:00.499Z,2.30
2023-01-18T03:27:00.547Z,2.40
2023-01-18T03:28:00.465Z,2.20
2023-01-18T03:29:00.465Z,2.10
2023-01-18T03:30:00.464Z,2.40
2023-01-18T03:31:00.459Z,2.40
2023-01-18T03:32:00.438Z,2.60
2023-01-18T03:33:00.659Z,2.20
2023-01-18T03:34:00.418Z,2.70
2023-01-18T03:35:00.604Z,2.60
2023-01-18T03:36:00.377Z,2.50
2023-01-18T03:37:00.369Z,2.50
2023-01-18T03:38:00.352Z,2.60
2023-01-18T03:39:03.714Z,2.70
2023-01-18T03:40:00.329Z,2.10
2023-01-18T03:41:00.347Z,2.00
2023-01-18T03:42:00.313Z,2.40
2023-01-18T03:43:00.421Z,2.60
2023-01-18T03:44:00.287Z,2.20
2023-01-18T03:45:00.302Z,2.40
2023-01-18T03:46:00.302Z,2.60
2023-01-18T03:47:00.272Z,2.20
2023-01-18T03:48:00.280Z,2.40
2023-01-18T03:49:00.236Z,2.70
2023-01-18T03:50:00.221Z,2.30
2023-01-18T03:51:00.241Z,2.50
2023-01-18T03:52:00.217Z,2.30
2023-01-18T03:53:00.311Z,3.30
2023-01-18T03:54:00.177Z,2.20
2023-01-18T03:55:00.206Z,2.50
2023-01-18T03:56:00.162Z,2.50
2023-01-18T03:57:00.148Z,2.30
2023-01-18T03:58:00.132Z,3.00
2023-01-18T03:59:00.144Z,2.20
2023-01-18T04:00:00.157Z,2.40
2023-01-18T04:01:00.191Z,2.80
2023-01-18T04:02:00.188Z,2.80
2023-01-18T04:03:00.626Z,2.70
2023-01-18T04:04:00.156Z,2.40
2023-01-18T04:05:00.092Z,3.00
2023-01-18T04:06:00.079Z,2.40
2023-01-18T04:07:00.044Z,2.70
2023-01-18T04:08:00.028Z,2.60
2023-01-18T04:09:00.051Z,3.10
2023-01-18T04:10:00.039Z,3.10
2023-01-18T04:11:00.002Z,2.80
2023-01-18T04:11:59.999Z,3.00
2023-01-18T04:13:00.494Z,2.60
2023-01-18T04:13:59.959Z,2.60
2023-01-18T04:14:59.960Z,2.70
2023-01-18T04:16:00.028Z,2.70
2023-01-18T04:16:59.931Z,3.10
2023-01-18T04:17:59.917Z,2.70
2023-01-18T04:18:59.911Z,2.70
2023-01-18T04:19:59.984Z,3.50
2023-01-18T04:20:59.897Z,2.60
2023-01-18T04:21:59.891Z,2.80
2023-01-18T04:23:00.453Z,3.00
2023-01-18T04:23:59.848Z,2.90
2023-01-18T04:24:59.853Z,3.20
2023-01-18T04:25:59.897Z,3.20
2023-01-18T04:26:59.836Z,2.90
2023-01-18T04:27:59.818Z,3.00
2023-01-18T04:28:59.807Z,3.20
2023-01-18T04:29:59.792Z,3.10
2023-01-18T04:30:59.853Z,3.10
2023-01-18T04:31:59.770Z,2.70
2023-01-18T04:33:00.189Z,3.10
2023-01-18T04:33:59.760Z,3.20
2023-01-18T04:34:59.735Z,3.50
2023-01-18T04:35:59.758Z,3.20
2023-01-18T04:36:59.705Z,3.20
2023-01-18T04:37:59.714Z,3.60
2023-01-18T04:38:59.681Z,3.10
2023-01-18T04:39:59.681Z,3.10
2023-01-18T04:40:59.678Z,4.20
2023-01-18T04:41:59.672Z,3.90
2023-01-18T04:42:59.990Z,3.00
2023-01-18T04:43:59.630Z,3.60
2023-01-18T04:44:59.620Z,3.00
2023-01-18T04:45:59.624Z,3.30
2023-01-18T04:46:59.617Z,4.50
2023-01-18T04:47:59.611Z,4.20
2023-01-18T04:48:59.569Z,3.90
2023-01-18T04:49:59.600Z,4.30
2023-01-18T04:50:59.551Z,4.00
2023-01-18T04:51:59.591Z,6.30
2023-01-18T04:53:00.218Z,5.40
2023-01-18T04:53:59.528Z,5.90
2023-01-18T04:54:59.536Z,4.40
2023-01-18T04:55:59.495Z,6.70
2023-01-18T04:56:59.482Z,7.40
2023-01-18T04:57:59.487Z,9.40
2023-01-18T04:58:59.474Z,8.00
2023-01-18T04:59:59.468Z,7.30
2023-01-18T05:00:59.517Z,5.00
2023-01-18T05:01:59.465Z,5.00
2023-01-18T05:02:59.826Z,4.70
2023-01-18T05:03:59.462Z,5.40
2023-01-18T05:04:59.392Z,4.70
2023-01-18T05:05:59.468Z,4.50
2023-01-18T05:06:59.468Z,3.60
2023-01-18T05:07:59.417Z,4.30
2023-01-18T05:08:59.351Z,3.80
2023-01-18T05:09:59.347Z,7.20
2023-01-18T05:10:59.325Z,6.10
2023-01-18T05:11:59.370Z,4.00
2023-01-18T05:12:59.754Z,4.00
2023-01-18T05:13:59.301Z,3.40
2023-01-18T05:14:59.281Z,3.40
2023-01-18T05:16:04.538Z,3.50
2023-01-18T05:16:59.262Z,3.40
2023-01-18T05:17:59.271Z,3.80
2023-01-18T05:18:59.239Z,3.50
2023-01-18T05:19:59.231Z,3.40
2023-01-18T05:20:59.215Z,3.40
2023-01-18T05:21:59.214Z,3.20
2023-01-18T05:22:59.600Z,3.40
2023-01-18T05:23:59.222Z,3.20
2023-01-18T05:24:59.176Z,3.20
2023-01-18T05:25:59.245Z,3.30
2023-01-18T05:26:59.176Z,3.50
2023-01-18T05:27:59.179Z,3.80
2023-01-18T05:28:59.123Z,3.90
2023-01-18T05:29:59.116Z,3.20
2023-01-18T05:30:59.121Z,3.10
2023-01-18T05:31:59.103Z,3.40
2023-01-18T05:32:59.523Z,3.90
2023-01-18T05:33:59.090Z,4.00
2023-01-18T05:34:59.074Z,3.80
2023-01-18T05:35:59.051Z,3.50
2023-01-18T05:36:59.053Z,4.10
2023-01-18T05:37:59.054Z,3.70
2023-01-18T05:38:59.024Z,3.50
2023-01-18T05:39:59.040Z,3.60
2023-01-18T05:40:59.018Z,3.80
2023-01-18T05:42:00.225Z,4.00
2023-01-18T05:42:59.333Z,3.80
2023-01-18T05:43:58.971Z,3.80
2023-01-18T05:44:58.952Z,4.10
2023-01-18T05:45:59.156Z,3.80
2023-01-18T05:46:58.928Z,3.80
2023-01-18T05:47:58.938Z,4.20
2023-01-18T05:48:58.912Z,4.50
2023-01-18T05:49:58.897Z,4.30
2023-01-18T05:50:58.882Z,4.20
2023-01-18T05:51:58.886Z,5.00
2023-01-18T05:52:59.336Z,4.50
2023-01-18T05:53:58.857Z,4.30
2023-01-18T05:54:58.835Z,5.60
2023-01-18T05:55:58.884Z,6.30
2023-01-18T05:56:58.815Z,5.90
2023-01-18T05:57:58.820Z,5.60
2023-01-18T05:58:58.812Z,5.40
2023-01-18T05:59:58.786Z,5.20
2023-01-18T06:00:58.849Z,5.40
2023-01-18T06:01:58.885Z,5.50
2023-01-18T06:02:59.129Z,5.10
2023-01-18T06:03:58.751Z,5.20
2023-01-18T06:04:58.729Z,4.60
2023-01-18T06:05:58.737Z,5.20
2023-01-18T06:06:58.707Z,4.70
2023-01-18T06:07:58.696Z,4.50
2023-01-18T06:08:58.684Z,4.30
2023-01-18T06:09:58.707Z,4.30
2023-01-18T06:10:58.668Z,4.60
2023-01-18T06:11:58.706Z,4.30
2023-01-18T06:12:58.978Z,3.90
2023-01-18T06:13:58.638Z,4.40
2023-01-18T06:14:58.616Z,4.70
2023-01-18T06:15:58.640Z,4.20
2023-01-18T06:16:58.593Z,4.30
2023-01-18T06:17:58.588Z,5.20
2023-01-18T06:18:58.590Z,4.60
2023-01-18T06:19:58.567Z,4.50
2023-01-18T06:21:01.126Z,4.80
2023-01-18T06:21:58.576Z,4.60
2023-01-18T06:22:58.978Z,4.10
2023-01-18T06:23:58.517Z,4.60
2023-01-18T06:24:58.508Z,4.80
2023-01-18T06:25:58.513Z,4.50
2023-01-18T06:26:58.498Z,4.60
2023-01-18T06:27:58.496Z,5.30
2023-01-18T06:28:58.510Z,6.00
2023-01-18T06:29:58.463Z,13.80
2023-01-18T06:30:58.448Z,16.30
2023-01-18T06:31:58.524Z,15.00
2023-01-18T06:32:58.773Z,16.00
2023-01-18T06:33:58.419Z,11.10
2023-01-18T06:34:58.391Z,8.10
2023-01-18T06:35:58.412Z,6.50
2023-01-18T06:36:58.374Z,5.30
2023-01-18T06:37:58.372Z,4.80
2023-01-18T06:38:58.350Z,4.50
2023-01-18T06:39:58.355Z,4.20
2023-01-18T06:40:58.399Z,4.20
2023-01-18T06:41:58.324Z,4.10
2023-01-18T06:42:58.624Z,3.90
2023-01-18T06:43:58.495Z,4.40
2023-01-18T06:44:58.291Z,4.50
2023-01-18T06:45:58.389Z,5.00
2023-01-18T06:46:58.262Z,3.90
2023-01-18T06:47:58.260Z,4.10
2023-01-18T06:48:58.260Z,4.20
2023-01-18T06:49:58.234Z,3.90
2023-01-18T06:50:58.259Z,3.80
2023-01-18T06:51:58.224Z,3.90
2023-01-18T06:52:59.655Z,3.80
2023-01-18T06:53:58.209Z,4.80
2023-01-18T06:54:58.172Z,4.50
2023-01-18T06:55:58.180Z,4.30
2023-01-18T06:56:58.163Z,4.70
2023-01-18T06:57:58.152Z,3.80
2023-01-18T06:58:58.150Z,4.60
2023-01-18T06:59:58.147Z,4.10
2023-01-18T07:00:58.236Z,3.70
2023-01-18T07:01:58.253Z,4.00
2023-01-18T07:02:58.495Z,4.00
2023-01-18T07:03:58.158Z,4.20
2023-01-18T07:04:58.067Z,4.20
2023-01-18T07:05:58.077Z,4.30
2023-01-18T07:06:58.045Z,4.40
2023-01-18T07:07:58.039Z,4.20
2023-01-18T07:08:58.023Z,4.00
2023-01-18T07:09:58.046Z,4.60
2023-01-18T07:10:58.000Z,4.80
2023-01-18T07:11:57.997Z,4.60
2023-01-18T07:12:58.240Z,4.60
2023-01-18T07:13:57.966Z,5.40
2023-01-18T07:14:57.976Z,5.50
2023-01-18T07:16:00.657Z,5.10
2023-01-18T07:16:58.006Z,5.40
2023-01-18T07:17:57.925Z,5.00
2023-01-18T07:18:57.910Z,4.20
2023-01-18T07:19:57.903Z,4.90
2023-01-18T07:20:57.907Z,5.50
2023-01-18T07:21:57.895Z,5.40
2023-01-18T07:22:58.256Z,5.30
2023-01-18T07:23:57.860Z,6.20
2023-01-18T07:24:57.868Z,6.50
2023-01-18T07:25:57.856Z,5.90
2023-01-18T07:26:57.823Z,6.30
2023-01-18T07:27:57.859Z,6.50
2023-01-18T07:28:57.801Z,6.30
2023-01-18T07:29:57.797Z,6.40
2023-01-18T07:30:57.794Z,6.20
2023-01-18T07:31:57.914Z,6.90
2023-01-18T07:32:58.110Z,6.80
2023-01-18T07:33:57.769Z,6.20
2023-01-18T07:34:59.495Z,6.10
2023-01-18T07:35:57.731Z,6.50
2023-01-18T07:36:57.712Z,6.60
2023-01-18T07:37:57.728Z,6.60
2023-01-18T07:38:57.683Z,6.90
2023-01-18T07:39:57.700Z,6.40
2023-01-18T07:40:57.676Z,6.80
2023-01-18T07:41:57.703Z,8.00
2023-01-18T07:42:58.097Z,8.00
2023-01-18T07:43:57.635Z,7.40
2023-01-18T07:44:57.624Z,7.20
2023-01-18T07:45:57.655Z,7.00
2023-01-18T07:46:57.600Z,7.30
2023-01-18T07:47:57.632Z,6.70
2023-01-18T07:48:57.576Z,6.70
2023-01-18T07:49:57.572Z,7.40
2023-01-18T07:50:57.569Z,7.10
2023-01-18T07:51:57.570Z,6.80
2023-01-18T07:52:58.019Z,6.70
2023-01-18T07:53:57.530Z,6.60
2023-01-18T07:54:57.512Z,6.90
2023-01-18T07:55:57.522Z,6.80
2023-01-18T07:56:57.493Z,7.10
2023-01-18T07:57:57.497Z,7.10
2023-01-18T07:58:57.493Z,7.60
2023-01-18T07:59:57.461Z,6.90
2023-01-18T08:00:57.472Z,7.20
2023-01-18T08:01:57.504Z,7.00
2023-01-18T08:02:59.143Z,7.70
2023-01-18T08:03:57.434Z,7.70
2023-01-18T08:04:57.403Z,7.60
2023-01-18T08:05:57.390Z,7.70
2023-01-18T08:06:57.388Z,8.10
2023-01-18T08:07:57.391Z,8.10
2023-01-18T08:08:57.397Z,8.80
2023-01-18T08:09:57.378Z,9.20
2023-01-18T08:10:57.333Z,8.50
2023-01-18T08:11:57.327Z,8.30
2023-01-18T08:12:57.749Z,8.40
2023-01-18T08:13:57.305Z,8.00
2023-01-18T08:14:57.305Z,8.40
2023-01-18T08:15:57.425Z,8.30
2023-01-18T08:16:57.265Z,8.50
2023-01-18T08:17:57.265Z,8.20
2023-01-18T08:18:57.244Z,8.90
2023-01-18T08:19:57.260Z,8.00
2023-01-18T08:20:57.235Z,7.80
2023-01-18T08:21:57.258Z,7.90
2023-01-18T08:22:57.675Z,8.60
2023-01-18T08:23:57.195Z,9.50
2023-01-18T08:24:57.194Z,8.40
2023-01-18T08:25:57.171Z,8.10
2023-01-18T08:26:57.174Z,8.10
2023-01-18T08:27:57.182Z,7.60
2023-01-18T08:28:57.134Z,8.30
2023-01-18T08:29:59.667Z,7.50
2023-01-18T08:30:57.130Z,7.60
2023-01-18T08:31:57.122Z,7.50
2023-01-18T08:32:57.520Z,7.90
2023-01-18T08:33:57.104Z,8.00
2023-01-18T08:34:57.091Z,8.40
2023-01-18T08:35:57.143Z,7.70
2023-01-18T08:36:57.077Z,7.60
2023-01-18T08:37:57.033Z,8.10
2023-01-18T08:38:57.065Z,7.80
2023-01-18T08:39:57.023Z,7.30
2023-01-18T08:40:56.998Z,7.70
2023-01-18T08:41:57.013Z,7.10
2023-01-18T08:42:57.420Z,7.10
2023-01-18T08:43:56.968Z,7.30
2023-01-18T08:44:56.959Z,7.70
2023-01-18T08:45:56.958Z,7.20
2023-01-18T08:46:56.968Z,7.10
2023-01-18T08:47:56.939Z,8.10
2023-01-18T08:48:56.931Z,6.80
2023-01-18T08:49:56.899Z,7.30
2023-01-18T08:50:56.912Z,7.10
2023-01-18T08:51:56.921Z,7.50
2023-01-18T08:52:57.335Z,7.00
2023-01-18T08:53:56.873Z,7.30
2023-01-18T08:54:56.850Z,7.20
2023-01-18T08:55:56.834Z,6.70
2023-01-18T08:56:56.828Z,7.50
2023-01-18T08:57:56.842Z,7.20
2023-01-18T08:58:56.854Z,7.20
2023-01-18T08:59:56.796Z,7.10
2023-01-18T09:00:56.829Z,6.80
2023-01-18T09:01:56.813Z,7.20
2023-01-18T09:02:57.294Z,8.10
2023-01-18T09:03:56.768Z,8.60
2023-01-18T09:04:56.757Z,7.30
2023-01-18T09:05:56.720Z,8.40
2023-01-18T09:06:56.716Z,7.80
2023-01-18T09:07:56.815Z,8.10
2023-01-18T09:08:56.715Z,8.00
2023-01-18T09:09:56.696Z,8.50
2023-01-18T09:10:56.692Z,8.00
2023-01-18T09:11:56.651Z,7.50
2023-01-18T09:12:57.106Z,7.00
2023-01-18T09:14:01.668Z,10.70
2023-01-18T09:14:57.647Z,7.20
2023-01-18T09:15:56.660Z,9.50
2023-01-18T09:16:56.612Z,6.70
2023-01-18T09:17:56.588Z,7.60
2023-01-18T09:18:56.693Z,8.10
2023-01-18T09:19:56.567Z,6.90
2023-01-18T09:20:56.561Z,7.90
2023-01-18T09:21:56.609Z,8.10
2023-01-18T09:22:56.890Z,8.60
2023-01-18T09:23:56.569Z,9.50
2023-01-18T09:24:56.514Z,9.40
2023-01-18T09:25:56.501Z,10.10
2023-01-18T09:26:56.498Z,10.30
2023-01-18T09:27:56.484Z,8.10
2023-01-18T09:28:56.506Z,8.70
2023-01-18T09:29:56.456Z,8.40
2023-01-18T09:30:56.496Z,10.00
2023-01-18T09:31:56.436Z,11.60
2023-01-18T09:32:56.781Z,9.30
2023-01-18T09:34:00.977Z,10.00
2023-01-18T09:34:57.411Z,9.20
2023-01-18T09:35:56.404Z,8.10
2023-01-18T09:36:56.381Z,9.80
2023-01-18T09:37:56.396Z,9.40
2023-01-18T09:38:56.378Z,11.40
2023-01-18T09:39:56.380Z,11.80
2023-01-18T09:40:56.346Z,10.50
2023-01-18T09:41:56.341Z,10.40
2023-01-18T09:42:56.669Z,8.70
2023-01-18T09:43:56.318Z,7.50
2023-01-18T09:44:56.307Z,7.20
2023-01-18T09:45:56.290Z,7.40
2023-01-18T09:46:56.389Z,7.30
2023-01-18T09:47:56.274Z,8.50
2023-01-18T09:48:56.251Z,7.90
2023-01-18T09:49:56.245Z,7.90
2023-01-18T09:50:56.221Z,7.80
2023-01-18T09:51:56.208Z,7.70
2023-01-18T09:52:56.548Z,7.80
2023-01-18T09:53:56.195Z,8.20
2023-01-18T09:54:56.189Z,7.80
2023-01-18T09:55:56.228Z,7.40
2023-01-18T09:56:56.174Z,7.50
2023-01-18T09:57:56.184Z,6.70
2023-01-18T09:58:56.158Z,7.30
2023-01-18T09:59:56.121Z,6.40
2023-01-18T10:00:56.227Z,6.90
2023-01-18T10:01:56.408Z,7.70
2023-01-18T10:02:58.099Z,7.90
2023-01-18T10:03:56.100Z,7.90
2023-01-18T10:04:56.078Z,7.80
2023-01-18T10:05:56.058Z,7.40
2023-01-18T10:06:56.053Z,7.70
2023-01-18T10:07:56.045Z,8.00
2023-01-18T10:08:56.045Z,7.60
2023-01-18T10:09:56.013Z,7.80
2023-01-18T10:10:56.026Z,6.70
2023-01-18T10:11:56.021Z,7.80
2023-01-18T10:12:56.157Z,7.90
2023-01-18T10:13:55.994Z,7.20
2023-01-18T10:14:55.970Z,8.10
2023-01-18T10:15:55.986Z,7.80
2023-01-18T10:16:55.938Z,7.40
2023-01-18T10:17:55.922Z,7.60
2023-01-18T10:18:55.935Z,8.40
2023-01-18T10:19:55.899Z,8.20
2023-01-18T10:20:55.899Z,8.10
2023-01-18T10:21:55.887Z,7.50
2023-01-18T10:22:56.270Z,7.40
2023-01-18T10:23:55.877Z,7.30
2023-01-18T10:24:55.873Z,7.50
2023-01-18T10:25:55.882Z,7.40
2023-01-18T10:26:55.848Z,6.90
2023-01-18T10:27:55.831Z,7.20
2023-01-18T10:28:55.803Z,7.20
2023-01-18T10:29:55.819Z,7.60
2023-01-18T10:30:55.792Z,7.20
2023-01-18T10:31:55.791Z,7.60
2023-01-18T10:32:55.842Z,7.40
2023-01-18T10:33:55.765Z,7.60
2023-01-18T10:34:55.768Z,8.30
2023-01-18T10:35:55.755Z,8.30
2023-01-18T10:36:55.743Z,8.90
2023-01-18T10:37:55.740Z,8.70
2023-01-18T10:38:55.707Z,10.40
2023-01-18T10:39:55.679Z,9.90
2023-01-18T10:40:55.675Z,11.40
2023-01-18T10:41:55.684Z,11.00
2023-01-18T10:42:55.754Z,11.30
2023-01-18T10:43:55.655Z,10.70
2023-01-18T10:44:55.663Z,11.80
2023-01-18T10:45:55.652Z,11.20
2023-01-18T10:46:55.604Z,13.30
2023-01-18T10:47:55.595Z,16.90
2023-01-18T10:48:55.589Z,15.60
2023-01-18T10:49:55.593Z,18.00
2023-01-18T10:50:55.575Z,16.90
2023-01-18T10:51:55.549Z,15.80
2023-01-18T10:52:55.562Z,11.30
2023-01-18T10:53:55.539Z,11.50
2023-01-18T10:54:55.548Z,11.90
2023-01-18T10:55:55.524Z,11.00
2023-01-18T10:56:55.495Z,11.40
2023-01-18T10:57:55.522Z,10.40
2023-01-18T10:58:55.477Z,12.10
2023-01-18T10:59:55.478Z,13.00
2023-01-18T11:00:55.589Z,11.80
2023-01-18T11:01:55.634Z,11.70
2023-01-18T11:02:55.452Z,10.50
2023-01-18T11:03:55.422Z,10.80
2023-01-18T11:04:55.447Z,10.00
2023-01-18T11:05:55.408Z,10.50
2023-01-18T11:06:55.384Z,10.40
2023-01-18T11:07:55.364Z,9.90
2023-01-18T11:08:55.389Z,10.60
2023-01-18T11:09:55.344Z,11.20
2023-01-18T11:10:55.377Z,10.70
2023-01-18T11:11:55.326Z,10.80
2023-01-18T11:12:55.318Z,9.20
2023-01-18T11:13:55.305Z,7.70
2023-01-18T11:14:55.304Z,8.90
2023-01-18T11:15:55.297Z,8.40
2023-01-18T11:16:55.300Z,9.10
2023-01-18T11:17:55.266Z,8.80
2023-01-18T11:18:55.258Z,8.00
2023-01-18T11:19:55.263Z,8.70
2023-01-18T11:20:55.243Z,8.10
2023-01-18T11:21:55.235Z,8.50
2023-01-18T11:22:55.270Z,9.10
2023-01-18T11:23:55.221Z,8.80
2023-01-18T11:24:55.194Z,9.10
2023-01-18T11:25:55.174Z,8.50
2023-01-18T11:26:55.185Z,8.50
2023-01-18T11:27:55.166Z,7.70
2023-01-18T11:28:55.172Z,7.30
2023-01-18T11:29:55.131Z,7.50
2023-01-18T11:30:55.128Z,7.30
2023-01-18T11:31:55.171Z,7.30
2023-01-18T11:32:55.125Z,7.50
2023-01-18T11:33:55.090Z,6.80
2023-01-18T11:34:55.068Z,7.40
2023-01-18T11:35:55.182Z,7.80
2023-01-18T11:36:55.054Z,7.50
2023-01-18T11:37:55.038Z,7.70
2023-01-18T11:38:55.045Z,7.10
2023-01-18T11:39:55.024Z,7.80
2023-01-18T11:40:55.034Z,7.30
2023-01-18T11:41:55.004Z,7.30
2023-01-18T11:42:55.016Z,8.00
2023-01-18T11:43:54.978Z,8.00
2023-01-18T11:44:54.968Z,9.70
2023-01-18T11:45:55.025Z,8.80
2023-01-18T11:46:54.957Z,7.40
2023-01-18T11:47:54.957Z,8.00
2023-01-18T11:48:54.956Z,7.20
2023-01-18T11:49:54.944Z,7.40
2023-01-18T11:50:54.898Z,7.00
2023-01-18T11:51:54.878Z,8.40
2023-01-18T11:52:54.875Z,7.80
2023-01-18T11:53:54.878Z,8.20
2023-01-18T11:54:54.866Z,7.90
2023-01-18T11:55:54.840Z,8.00
2023-01-18T11:56:54.834Z,7.90
2023-01-18T11:57:54.834Z,8.10
2023-01-18T11:58:54.806Z,7.80
2023-01-18T11:59:54.824Z,9.80
2023-01-18T12:00:54.827Z,9.50
2023-01-18T12:01:54.791Z,8.70
2023-01-18T12:02:54.776Z,7.20
2023-01-18T12:03:54.784Z,6.00
2023-01-18T12:04:54.745Z,6.00
2023-01-18T12:05:54.767Z,5.90
2023-01-18T12:06:54.744Z,6.60
2023-01-18T12:07:54.705Z,6.40
2023-01-18T12:08:54.715Z,6.30
2023-01-18T12:09:54.696Z,5.60
2023-01-18T12:10:54.675Z,6.10
2023-01-18T12:11:54.658Z,6.30
2023-01-18T12:12:54.667Z,6.40
2023-01-18T12:13:54.663Z,6.80
2023-01-18T12:14:54.628Z,7.00
2023-01-18T12:15:54.617Z,7.20
2023-01-18T12:16:54.661Z,6.90
2023-01-18T12:18:11.365Z,6.60
2023-01-18T12:18:55.594Z,6.90
2023-01-18T12:19:54.586Z,7.20
2023-01-18T12:20:54.560Z,6.40
2023-01-18T12:21:54.555Z,6.70
2023-01-18T12:22:54.539Z,6.70
2023-01-18T12:23:54.558Z,6.90
2023-01-18T12:24:54.517Z,7.00
2023-01-18T12:26:10.748Z,7.80
2023-01-18T12:26:55.527Z,8.50
2023-01-18T12:27:54.476Z,8.40
2023-01-18T12:28:54.485Z,7.80
2023-01-18T12:29:54.469Z,8.20
2023-01-18T12:30:54.568Z,6.50
2023-01-18T12:31:54.460Z,6.90
2023-01-18T12:32:54.435Z,6.80
2023-01-18T12:33:54.413Z,7.20
2023-01-18T12:34:54.400Z,8.30
2023-01-18T12:35:54.423Z,8.80
2023-01-18T12:36:54.407Z,9.00
2023-01-18T12:37:54.539Z,7.90
2023-01-18T12:38:54.395Z,8.80
2023-01-18T12:39:54.373Z,8.40
2023-01-18T12:40:54.341Z,10.70
2023-01-18T12:41:54.373Z,9.00
2023-01-18T12:42:54.324Z,7.60
2023-01-18T12:43:55.710Z,7.80
2023-01-18T12:44:54.341Z,7.50
2023-01-18T12:45:54.321Z,7.50
2023-01-18T12:46:54.288Z,8.30
2023-01-18T12:47:54.290Z,7.70
2023-01-18T12:48:54.285Z,8.30
2023-01-18T12:49:54.264Z,7.60
2023-01-18T12:50:54.241Z,7.00
2023-01-18T12:51:54.275Z,8.40
2023-01-18T12:52:54.213Z,7.30
2023-01-18T12:53:54.201Z,7.80
2023-01-18T12:54:54.197Z,6.70
2023-01-18T12:55:54.183Z,7.80
2023-01-18T12:56:54.202Z,7.50
2023-01-18T12:57:54.163Z,7.30
2023-01-18T12:58:54.158Z,8.10
2023-01-18T12:59:54.167Z,6.50
2023-01-18T13:00:54.165Z,7.40
2023-01-18T13:01:54.133Z,6.90
2023-01-18T13:02:54.203Z,7.60
2023-01-18T13:03:54.095Z,7.00
2023-01-18T13:04:54.087Z,7.90
2023-01-18T13:05:54.101Z,7.60
2023-01-18T13:06:54.053Z,6.70
2023-01-18T13:07:54.058Z,6.50
2023-01-18T13:08:54.044Z,6.50
2023-01-18T13:09:54.032Z,7.10
2023-01-18T13:10:54.042Z,6.60
2023-01-18T13:11:54.000Z,6.40
2023-01-18T13:12:56.668Z,7.30
2023-01-18T13:13:53.976Z,6.60
2023-01-18T13:14:53.962Z,6.80
2023-01-18T13:15:54.142Z,6.30